createdAt,value
2022-09-18T00:02:00.239Z,10.50
2022-09-18T00:04:35.140Z,10.50
2022-09-18T00:07:06.012Z,10.40
2022-09-18T00:09:34.447Z,10.40
2022-09-18T00:12:02.678Z,10.40
2022-09-18T00:14:31.209Z,10.40
2022-09-18T00:16:59.710Z,10.40
2022-09-18T00:19:27.926Z,10.40
2022-09-18T00:21:56.142Z,10.40
2022-09-18T00:24:24.665Z,10.40
2022-09-18T00:26:54.767Z,10.30
2022-09-18T00:29:23.060Z,10.40
2022-09-18T00:31:57.472Z,10.40
2022-09-18T00:34:26.134Z,10.40
2022-09-18T00:36:54.915Z,10.40
2022-09-18T00:39:23.510Z,10.40
2022-09-18T00:41:51.790Z,10.40
2022-09-18T00:44:37.974Z,10.40
2022-09-18T00:47:12.808Z,10.30
2022-09-18T00:49:53.283Z,10.40
2022-09-18T00:52:25.038Z,10.30
2022-09-18T00:55:08.115Z,10.40
2022-09-18T00:57:43.015Z,10.40
2022-09-18T01:00:12.648Z,10.40
2022-09-18T01:02:46.512Z,10.40
2022-09-18T01:05:25.702Z,10.40
2022-09-18T01:08:17.296Z,10.30
2022-09-18T01:11:09.411Z,10.30
2022-09-18T01:14:15.263Z,10.30
2022-09-18T01:17:20.768Z,10.30
2022-09-18T01:20:15.383Z,10.30
2022-09-18T01:23:17.422Z,10.30
2022-09-18T01:25:56.302Z,10.30
2022-09-18T01:28:41.561Z,10.20
2022-09-18T01:31:35.347Z,10.20
2022-09-18T01:34:14.122Z,10.20
2022-09-18T01:36:54.688Z,10.20
2022-09-18T01:39:35.057Z,10.20
2022-09-18T01:42:05.554Z,10.20
2022-09-18T01:44:40.914Z,10.20
2022-09-18T01:47:15.170Z,10.20
2022-09-18T01:49:47.890Z,10.20
2022-09-18T01:52:29.167Z,10.20
2022-09-18T01:55:04.319Z,10.10
2022-09-18T01:57:58.722Z,10.20
2022-09-18T02:00:31.958Z,10.20
2022-09-18T02:03:16.109Z,10.10
2022-09-18T02:05:48.963Z,10.20
2022-09-18T02:08:42.910Z,10.10
2022-09-18T02:11:19.401Z,10.20
2022-09-18T02:14:33.259Z,10.10
2022-09-18T02:17:50.919Z,10.10
2022-09-18T02:20:29.059Z,10.20
2022-09-18T02:23:02.968Z,10.10
2022-09-18T02:25:39.341Z,10.10
2022-09-18T02:28:10.130Z,10.10
2022-09-18T02:30:42.751Z,10.10
2022-09-18T02:33:36.240Z,10.10
2022-09-18T02:36:10.593Z,10.10
2022-09-18T02:38:59.255Z,10.10
2022-09-18T02:41:59.013Z,10.00
2022-09-18T02:44:41.133Z,10.00
2022-09-18T02:47:41.677Z,10.00
2022-09-18T02:50:30.755Z,10.00
2022-09-18T02:53:13.510Z,10.00
2022-09-18T02:56:11.448Z,9.90
2022-09-18T02:58:56.348Z,10.00
2022-09-18T03:01:28.008Z,9.90
2022-09-18T03:04:06.298Z,9.90
2022-09-18T03:06:54.586Z,9.90
2022-09-18T03:09:23.135Z,9.90
2022-09-18T03:11:52.335Z,9.90
2022-09-18T03:14:24.181Z,9.90
2022-09-18T03:16:52.355Z,9.90
2022-09-18T03:19:22.276Z,9.90
2022-09-18T03:21:54.207Z,9.90
2022-09-18T03:24:25.588Z,9.90
2022-09-18T03:26:54.391Z,9.90
2022-09-18T03:29:25.516Z,9.90
2022-09-18T03:31:54.808Z,9.90
2022-09-18T03:34:26.512Z,9.90
2022-09-18T03:36:54.477Z,9.90
2022-09-18T03:39:28.184Z,9.90
2022-09-18T03:42:04.130Z,9.90
2022-09-18T03:44:36.418Z,9.80
2022-09-18T03:47:13.414Z,9.90
2022-09-18T03:49:42.071Z,9.80
2022-09-18T03:52:20.005Z,9.90
2022-09-18T03:54:55.503Z,9.90
2022-09-18T03:58:02.658Z,9.90
2022-09-18T04:00:43.764Z,9.90
2022-09-18T04:03:23.414Z,9.90
2022-09-18T04:06:29.474Z,10.00
2022-09-18T04:09:17.436Z,10.00
2022-09-18T04:11:50.911Z,10.10
2022-09-18T04:14:29.294Z,10.10
2022-09-18T04:17:03.297Z,10.10
2022-09-18T04:19:35.189Z,10.10
2022-09-18T04:22:07.675Z,10.10
2022-09-18T04:24:39.957Z,10.20
2022-09-18T04:27:09.723Z,10.20
2022-09-18T04:29:43.434Z,10.20
2022-09-18T04:32:14.041Z,10.20
2022-09-18T04:34:43.671Z,10.20
2022-09-18T04:37:21.976Z,10.20
2022-09-18T04:39:53.416Z,10.30
2022-09-18T04:42:34.618Z,10.30
2022-09-18T04:45:03.911Z,10.30
2022-09-18T04:47:32.179Z,10.40
2022-09-18T04:50:09.567Z,10.40
2022-09-18T04:52:41.096Z,10.40
2022-09-18T04:55:11.530Z,10.40
2022-09-18T04:57:45.399Z,10.40
2022-09-18T05:00:15.018Z,10.50
2022-09-18T05:02:43.463Z,10.50
2022-09-18T05:05:14.738Z,10.60
2022-09-18T05:07:46.710Z,10.60
2022-09-18T05:10:17.498Z,10.60
2022-09-18T05:15:24.584Z,10.70
2022-09-18T05:18:01.973Z,10.70
2022-09-18T05:20:31.846Z,10.80
2022-09-18T05:23:09.876Z,10.80
2022-09-18T05:25:43.006Z,10.80
2022-09-18T05:28:13.985Z,10.80
2022-09-18T05:30:46.249Z,10.80
2022-09-18T05:33:15.321Z,10.70
2022-09-18T05:35:43.942Z,10.60
2022-09-18T05:38:13.043Z,10.70
2022-09-18T05:40:45.491Z,10.60
2022-09-18T05:43:16.252Z,10.60
2022-09-18T05:45:49.761Z,10.60
2022-09-18T05:48:35.156Z,10.60
2022-09-18T05:51:07.965Z,10.60
2022-09-18T05:53:37.480Z,10.60
2022-09-18T05:56:12.223Z,10.70
2022-09-18T05:58:47.986Z,10.70
2022-09-18T06:01:17.047Z,10.80
2022-09-18T06:04:14.594Z,10.80
2022-09-18T06:06:52.440Z,10.70
2022-09-18T06:09:25.144Z,10.70
2022-09-18T06:11:56.113Z,10.70
2022-09-18T06:14:25.426Z,10.70
2022-09-18T06:16:55.133Z,10.70
2022-09-18T06:19:23.664Z,10.70
2022-09-18T06:22:05.978Z,10.80
2022-09-18T06:24:35.369Z,10.80
2022-09-18T06:27:13.766Z,10.80
2022-09-18T06:29:44.142Z,10.90
2022-09-18T06:32:16.849Z,10.90
2022-09-18T06:34:44.981Z,11.00
2022-09-18T06:37:17.814Z,11.10
2022-09-18T06:39:46.557Z,11.10
2022-09-18T06:42:27.172Z,11.20
2022-09-18T06:45:22.134Z,11.30
2022-09-18T06:47:56.257Z,11.30
2022-09-18T06:50:26.231Z,11.40
2022-09-18T06:52:55.517Z,11.40
2022-09-18T06:55:24.156Z,11.50
2022-09-18T06:58:00.539Z,11.60
2022-09-18T07:00:32.079Z,11.70
2022-09-18T07:03:02.856Z,11.70
2022-09-18T07:05:46.159Z,11.80
2022-09-18T07:08:30.812Z,11.90
2022-09-18T07:11:12.876Z,11.90
2022-09-18T07:13:48.543Z,12.00
2022-09-18T07:16:18.138Z,12.00
2022-09-18T07:18:49.047Z,12.10
2022-09-18T07:21:23.795Z,12.20
2022-09-18T07:23:52.158Z,12.20
2022-09-18T07:26:23.379Z,12.30
2022-09-18T07:28:53.029Z,12.30
2022-09-18T07:31:26.770Z,12.30
2022-09-18T07:33:57.159Z,12.30
2022-09-18T07:36:29.136Z,12.40
2022-09-18T07:38:59.960Z,12.50
2022-09-18T07:41:36.329Z,12.60
2022-09-18T07:44:08.884Z,12.60
2022-09-18T07:46:37.539Z,12.60
2022-09-18T07:49:14.429Z,12.70
2022-09-18T07:51:43.055Z,12.80
2022-09-18T07:54:13.553Z,12.90
2022-09-18T07:57:06.497Z,13.00
2022-09-18T08:00:00.336Z,13.10
2022-09-18T08:02:28.665Z,13.10
2022-09-18T08:04:57.936Z,13.20
2022-09-18T08:07:41.252Z,13.30
2022-09-18T08:10:37.486Z,13.20
2022-09-18T08:13:38.356Z,13.30
2022-09-18T08:16:33.129Z,13.40
2022-09-18T08:19:22.352Z,13.50
2022-09-18T08:21:58.243Z,13.60
2022-09-18T08:24:27.049Z,13.70
2022-09-18T08:26:57.744Z,13.80
2022-09-18T08:29:26.196Z,13.90
2022-09-18T08:32:05.477Z,14.00
2022-09-18T08:34:38.127Z,14.00
2022-09-18T08:37:09.900Z,14.00
2022-09-18T08:39:57.580Z,14.20
2022-09-18T08:43:07.134Z,14.20
2022-09-18T08:46:03.151Z,14.30
2022-09-18T08:48:47.232Z,14.40
2022-09-18T08:51:53.041Z,14.50
2022-09-18T08:54:34.645Z,14.60
2022-09-18T08:57:38.837Z,14.60
2022-09-18T09:00:37.037Z,14.50
2022-09-18T09:03:41.218Z,14.50
2022-09-18T09:06:29.137Z,14.60
2022-09-18T09:09:26.159Z,14.70
2022-09-18T09:12:13.831Z,14.80
2022-09-18T09:15:07.852Z,14.80
2022-09-18T09:17:42.617Z,14.80
2022-09-18T09:20:37.469Z,14.70
2022-09-18T09:23:36.868Z,14.80
2022-09-18T09:26:25.977Z,14.80
2022-09-18T09:29:32.264Z,14.70
2022-09-18T09:32:36.762Z,14.70
2022-09-18T09:35:51.901Z,14.70
2022-09-18T09:38:53.506Z,14.60
2022-09-18T09:41:29.740Z,14.60
2022-09-18T09:44:06.355Z,14.70
2022-09-18T09:46:54.979Z,14.70
2022-09-18T09:49:23.378Z,14.70
2022-09-18T09:51:55.387Z,14.70
2022-09-18T09:54:23.768Z,14.80
2022-09-18T09:57:07.439Z,14.80
2022-09-18T09:59:57.320Z,14.80
2022-09-18T10:03:05.512Z,14.90
2022-09-18T10:05:43.459Z,14.90
2022-09-18T10:08:28.676Z,15.00
2022-09-18T10:11:03.552Z,14.90
2022-09-18T10:14:04.680Z,14.80
2022-09-18T10:16:46.220Z,14.80
2022-09-18T10:19:19.567Z,14.80
2022-09-18T10:21:58.158Z,14.80
2022-09-18T10:24:35.648Z,14.80
2022-09-18T10:27:19.327Z,14.80
2022-09-18T10:29:50.322Z,14.80
2022-09-18T10:32:53.549Z,14.80
2022-09-18T10:35:31.053Z,14.70
2022-09-18T10:38:00.434Z,14.80
2022-09-18T10:40:38.721Z,14.80
2022-09-18T10:43:21.426Z,15.00
2022-09-18T10:45:57.794Z,15.00
2022-09-18T10:48:43.943Z,15.10
2022-09-18T10:51:21.229Z,15.10
2022-09-18T10:54:06.238Z,15.20
2022-09-18T10:56:54.821Z,15.20
2022-09-18T10:59:30.475Z,15.10
2022-09-18T11:02:05.820Z,15.20
2022-09-18T11:04:37.301Z,15.20
2022-09-18T11:07:12.049Z,15.20
2022-09-18T11:09:42.706Z,15.20
2022-09-18T11:12:23.395Z,15.20
2022-09-18T11:15:17.095Z,15.20
2022-09-18T11:17:58.051Z,15.20
2022-09-18T11:20:32.601Z,15.20
2022-09-18T11:23:19.296Z,15.20
2022-09-18T11:25:48.350Z,15.20
2022-09-18T11:28:33.065Z,15.20
2022-09-18T11:31:16.726Z,15.20
2022-09-18T11:33:57.465Z,15.20
2022-09-18T11:36:33.446Z,15.30
2022-09-18T11:39:22.577Z,15.30
2022-09-18T11:41:58.060Z,15.30
2022-09-18T11:44:33.032Z,15.30
2022-09-18T11:47:18.264Z,15.40
2022-09-18T11:50:25.676Z,15.50
2022-09-18T11:53:02.014Z,15.50
2022-09-18T11:56:13.231Z,15.60
2022-09-18T11:59:13.422Z,15.70
2022-09-18T12:01:53.172Z,15.80
2022-09-18T12:04:51.646Z,15.90
2022-09-18T12:07:42.151Z,15.90
2022-09-18T12:10:47.116Z,15.80
2022-09-18T12:13:43.832Z,15.90
2022-09-18T12:16:35.496Z,15.80
2022-09-18T12:19:27.937Z,15.90
2022-09-18T12:22:20.992Z,16.00
2022-09-18T12:24:53.922Z,16.10
2022-09-18T12:28:28.447Z,16.10
2022-09-18T12:31:40.371Z,16.20
2022-09-18T12:34:44.267Z,16.20
2022-09-18T12:37:12.595Z,16.20
2022-09-18T12:40:07.447Z,16.20
2022-09-18T12:43:26.967Z,16.30
2022-09-18T12:46:43.337Z,16.20
2022-09-18T12:49:42.114Z,16.20
2022-09-18T12:53:08.467Z,16.20
2022-09-18T12:56:06.605Z,16.10
2022-09-18T12:58:48.193Z,16.00
2022-09-18T13:01:42.699Z,15.90
2022-09-18T13:05:02.468Z,15.90
2022-09-18T13:07:37.851Z,15.80
2022-09-18T13:10:41.544Z,15.70
2022-09-18T13:13:38.398Z,15.60
2022-09-18T13:16:19.765Z,15.40
2022-09-18T13:19:28.604Z,15.40
2022-09-18T13:22:02.413Z,15.30
2022-09-18T13:24:41.124Z,15.20
2022-09-18T13:27:16.824Z,15.20
2022-09-18T13:29:58.244Z,15.10
2022-09-18T13:32:36.718Z,15.00
2022-09-18T13:35:14.099Z,15.10
2022-09-18T13:37:44.251Z,15.00
2022-09-18T13:40:41.693Z,15.00
2022-09-18T13:43:39.873Z,15.00
2022-09-18T13:46:33.619Z,15.00
2022-09-18T13:49:25.788Z,14.90
2022-09-18T13:52:00.604Z,14.90
2022-09-18T13:54:37.934Z,14.80
2022-09-18T13:57:17.620Z,14.80
2022-09-18T14:00:00.864Z,14.80
2022-09-18T14:02:37.809Z,14.90
2022-09-18T14:05:28.420Z,14.70
2022-09-18T14:08:10.349Z,14.70
2022-09-18T14:10:59.457Z,14.70
2022-09-18T14:13:39.407Z,14.70
2022-09-18T14:16:39.141Z,14.60
2022-09-18T14:19:33.580Z,14.70
2022-09-18T14:22:28.274Z,14.60
2022-09-18T14:25:05.377Z,14.60
2022-09-18T14:28:04.049Z,14.50
2022-09-18T14:30:38.819Z,14.60
2022-09-18T14:33:19.260Z,14.60
2022-09-18T14:36:06.206Z,14.50
2022-09-18T14:38:45.218Z,14.50
2022-09-18T14:41:28.812Z,14.50
2022-09-18T14:44:07.412Z,14.50
2022-09-18T14:46:51.452Z,14.60
2022-09-18T14:49:57.046Z,14.60
2022-09-18T14:52:32.791Z,14.60
2022-09-18T14:55:13.490Z,14.60
2022-09-18T14:58:06.951Z,14.50
2022-09-18T15:00:37.200Z,14.60
2022-09-18T15:03:19.930Z,14.60
2022-09-18T15:05:53.989Z,14.50
2022-09-18T15:08:27.533Z,14.50
2022-09-18T15:10:59.562Z,14.50
2022-09-18T15:13:30.597Z,14.50
2022-09-18T15:16:06.606Z,14.50
2022-09-18T15:18:45.077Z,14.50
2022-09-18T15:21:47.052Z,14.40
2022-09-18T15:24:20.305Z,14.40
2022-09-18T15:27:06.391Z,14.40
2022-09-18T15:29:44.493Z,14.30
2022-09-18T15:32:38.746Z,14.30
2022-09-18T15:35:22.566Z,14.20
2022-09-18T15:37:54.512Z,14.10
2022-09-18T15:40:41.257Z,14.10
2022-09-18T15:43:30.743Z,14.10
2022-09-18T15:46:33.527Z,14.00
2022-09-18T15:49:26.134Z,14.00
2022-09-18T15:51:57.026Z,13.90
2022-09-18T15:57:16.758Z,13.90
2022-09-18T15:59:48.554Z,13.90
2022-09-18T16:02:30.821Z,13.80
2022-09-18T16:05:10.199Z,13.80
2022-09-18T16:08:06.190Z,13.70
2022-09-18T16:10:37.476Z,13.70
2022-09-18T16:13:14.799Z,13.70
2022-09-18T16:15:47.942Z,13.70
2022-09-18T16:18:32.403Z,13.70
2022-09-18T16:21:14.798Z,13.60
2022-09-18T16:23:59.248Z,13.70
2022-09-18T16:26:36.433Z,13.60
2022-09-18T16:29:14.624Z,13.60
2022-09-18T16:31:51.526Z,13.60
2022-09-18T16:34:26.047Z,13.50
2022-09-18T16:36:56.365Z,13.50
2022-09-18T16:39:26.795Z,13.40
2022-09-18T16:42:00.971Z,13.40
2022-09-18T16:44:29.699Z,13.30
2022-09-18T16:47:12.421Z,13.30
2022-09-18T16:49:51.582Z,13.30
2022-09-18T16:52:20.203Z,13.20
2022-09-18T16:54:58.032Z,13.20
2022-09-18T16:57:30.209Z,13.10
2022-09-18T17:00:05.193Z,13.10
2022-09-18T17:02:37.411Z,13.10
2022-09-18T17:05:06.902Z,13.10
2022-09-18T17:07:36.122Z,13.10
2022-09-18T17:10:05.294Z,13.10
2022-09-18T17:12:36.482Z,13.10
2022-09-18T17:15:06.199Z,13.10
2022-09-18T17:17:36.033Z,13.10
2022-09-18T17:20:14.744Z,13.10
2022-09-18T17:22:51.312Z,13.10
2022-09-18T17:25:20.066Z,13.10
2022-09-18T17:28:00.244Z,13.10
2022-09-18T17:30:29.410Z,13.10
2022-09-18T17:33:00.487Z,13.10
2022-09-18T17:35:41.041Z,13.10
2022-09-18T17:38:11.966Z,13.10
2022-09-18T17:40:42.333Z,13.10
2022-09-18T17:43:17.187Z,13.10
2022-09-18T17:45:57.193Z,13.00
2022-09-18T17:48:29.669Z,13.00
2022-09-18T17:51:06.294Z,13.00
2022-09-18T17:53:38.163Z,13.00
2022-09-18T17:56:13.111Z,12.90
2022-09-18T17:58:44.571Z,12.90
2022-09-18T18:01:19.045Z,12.90
2022-09-18T18:03:49.303Z,12.80
2022-09-18T18:06:22.417Z,12.80
2022-09-18T18:08:52.930Z,12.70
2022-09-18T18:11:22.986Z,12.70
2022-09-18T18:13:53.063Z,12.70
2022-09-18T18:16:31.079Z,12.60
2022-09-18T18:19:03.662Z,12.60
2022-09-18T18:21:38.520Z,12.60
2022-09-18T18:24:17.300Z,12.50
2022-09-18T18:26:48.839Z,12.50
2022-09-18T18:29:19.797Z,12.50
2022-09-18T18:31:49.703Z,12.50
2022-09-18T18:34:22.698Z,12.40
2022-09-18T18:36:53.818Z,12.50
2022-09-18T18:39:24.101Z,12.40
2022-09-18T18:41:52.823Z,12.40
2022-09-18T18:44:27.787Z,12.50
2022-09-18T18:47:02.142Z,12.50
2022-09-18T18:49:34.458Z,12.50
2022-09-18T18:52:12.616Z,12.50
2022-09-18T18:54:41.863Z,12.50
2022-09-18T18:57:10.468Z,12.50
2022-09-18T18:59:38.769Z,12.50
2022-09-18T19:02:12.191Z,12.50
2022-09-18T19:04:51.252Z,12.50
2022-09-18T19:07:23.944Z,12.50
2022-09-18T19:09:57.319Z,12.50
2022-09-18T19:12:31.617Z,12.50
2022-09-18T19:15:11.184Z,12.50
2022-09-18T19:17:50.734Z,12.50
2022-09-18T19:20:20.854Z,12.50
2022-09-18T19:23:03.365Z,12.50
2022-09-18T19:25:35.464Z,12.50
2022-09-18T19:28:10.868Z,12.50
2022-09-18T19:30:40.259Z,12.50
2022-09-18T19:33:17.074Z,12.50
2022-09-18T19:35:51.165Z,12.50
2022-09-18T19:38:25.990Z,12.50
2022-09-18T19:40:56.495Z,12.50
2022-09-18T19:43:32.195Z,12.50
2022-09-18T19:46:14.408Z,12.50
2022-09-18T19:48:54.507Z,12.50
2022-09-18T19:51:31.536Z,12.40
2022-09-18T19:54:02.945Z,12.40
2022-09-18T19:56:43.238Z,12.40
2022-09-18T19:59:14.125Z,12.40
2022-09-18T20:01:44.031Z,12.40
2022-09-18T20:04:17.294Z,12.30
2022-09-18T20:06:48.703Z,12.30
2022-09-18T20:09:20.759Z,12.30
2022-09-18T20:11:49.141Z,12.30
2022-09-18T20:14:20.140Z,12.30
2022-09-18T20:16:49.231Z,12.30
2022-09-18T20:19:24.650Z,12.30
2022-09-18T20:21:55.151Z,12.20
2022-09-18T20:24:30.007Z,12.20
2022-09-18T20:27:01.538Z,12.20
2022-09-18T20:29:34.022Z,12.20
2022-09-18T20:32:11.069Z,12.20
2022-09-18T20:34:47.902Z,12.20
2022-09-18T20:37:24.942Z,12.10
2022-09-18T20:40:16.826Z,12.10
2022-09-18T20:42:54.619Z,12.10
2022-09-18T20:45:29.866Z,12.10
2022-09-18T20:48:00.019Z,12.10
2022-09-18T20:50:40.258Z,12.00
2022-09-18T20:53:09.573Z,12.10
2022-09-18T20:55:38.302Z,12.10
2022-09-18T20:58:15.520Z,12.10
2022-09-18T21:00:48.997Z,12.10
2022-09-18T21:03:20.544Z,12.10
2022-09-18T21:06:21.405Z,12.00
2022-09-18T21:09:08.440Z,12.00
2022-09-18T21:11:42.446Z,12.00
2022-09-18T21:14:16.471Z,12.00
2022-09-18T21:16:56.296Z,12.00
2022-09-18T21:19:26.435Z,12.00
2022-09-18T21:21:55.449Z,12.00
2022-09-18T21:24:26.608Z,12.10
2022-09-18T21:27:00.593Z,12.00
2022-09-18T21:29:32.214Z,12.10
2022-09-18T21:32:03.369Z,12.10
2022-09-18T21:34:35.313Z,12.10
2022-09-18T21:37:10.550Z,12.10
2022-09-18T21:39:49.916Z,12.10
2022-09-18T21:42:22.652Z,12.10
2022-09-18T21:44:53.956Z,12.00
2022-09-18T21:47:23.115Z,12.00
2022-09-18T21:50:03.937Z,12.10
2022-09-18T21:52:32.192Z,12.00
2022-09-18T21:55:03.716Z,12.00
2022-09-18T21:57:38.666Z,11.90
2022-09-18T22:00:09.748Z,11.90
2022-09-18T22:02:43.537Z,11.90
2022-09-18T22:05:16.819Z,11.90
2022-09-18T22:07:49.026Z,11.90
2022-09-18T22:10:17.678Z,11.90
2022-09-18T22:12:46.303Z,11.90
2022-09-18T22:15:21.864Z,11.90
2022-09-18T22:17:53.153Z,12.00
2022-09-18T22:20:22.466Z,12.00
2022-09-18T22:22:57.321Z,11.90
2022-09-18T22:25:29.195Z,12.00
2022-09-18T22:28:00.125Z,12.00
2022-09-18T22:30:32.372Z,12.00
2022-09-18T22:33:06.524Z,11.90
2022-09-18T22:35:37.205Z,11.90
2022-09-18T22:38:13.015Z,11.90
2022-09-18T22:40:41.719Z,11.90
2022-09-18T22:43:15.811Z,11.90
2022-09-18T22:45:44.961Z,11.90
2022-09-18T22:48:16.762Z,11.90
2022-09-18T22:50:47.548Z,11.90
2022-09-18T22:53:16.133Z,11.90
2022-09-18T22:55:44.850Z,11.90
2022-09-18T22:58:14.101Z,11.90
2022-09-18T23:00:49.539Z,11.90
2022-09-18T23:03:23.315Z,11.90
2022-09-18T23:05:53.092Z,11.90
2022-09-18T23:08:36.604Z,11.90
2022-09-18T23:11:11.584Z,11.90
2022-09-18T23:13:43.025Z,11.90
2022-09-18T23:16:15.177Z,11.90
2022-09-18T23:18:52.611Z,11.90
2022-09-18T23:21:32.139Z,11.90
2022-09-18T23:24:09.590Z,11.90
2022-09-18T23:26:44.295Z,11.90
2022-09-18T23:29:19.792Z,11.90
2022-09-18T23:31:52.492Z,11.90
2022-09-18T23:34:31.967Z,11.90
2022-09-18T23:37:06.288Z,11.90
2022-09-18T23:39:45.126Z,11.90
2022-09-18T23:42:14.305Z,11.90
2022-09-18T23:44:42.727Z,11.90
2022-09-18T23:47:14.413Z,11.90
2022-09-18T23:49:46.571Z,11.90
2022-09-18T23:52:17.142Z,11.90
2022-09-18T23:54:48.779Z,11.90
2022-09-18T23:57:17.939Z,11.90
2022-09-18T23:59:53.565Z,11.90
